Time;durP1;ratioP1;P1;durP2;ratioP2;P2;SDS_P1;SDS_P2;PMS_P1;PMS_P2;Temp;Humidity;BMP_temperature;BMP_pressure;BME280_temperature;BME280_humidity;BME280_pressure;Samples;Min_cycle;Max_cycle;Signal;HPM_P1;HPM_P2
2022/08/01 00:00:26;;;;;;;17.57;11.10;;;;;;;19.05;100.00;101515.75;4987593;28;20789;-94
2022/08/01 00:03:00;;;;;;;16.70;10.83;;;;;;;19.01;100.00;101520.97;4988688;28;20038;-93
2022/08/01 00:05:41;;;;;;;;;;;;;;;;;;;;;
2022/08/01 00:08:07;;;;;;;17.13;11.32;;;;;;;19.04;100.00;101514.13;4990237;28;20034;-92
2022/08/01 00:10:53;;;;;;;17.20;10.67;;;;;;;19.08;100.00;101531.44;4990150;28;20118;-93
2022/08/01 00:13:21;;;;;;;16.27;11.43;;;;;;;18.98;100.00;101521.56;4989386;28;20137;-92
2022/08/01 00:15:46;;;;;;;15.85;11.43;;;;;;;18.97;100.00;101514.53;4982271;28;20054;-93
2022/08/01 00:18:17;;;;;;;19.13;11.20;;;;;;;19.01;100.00;101522.88;5021726;23;20058;-93
2022/08/01 00:20:51;;;;;;;20.05;11.32;;;;;;;19.06;100.00;101529.06;5009502;28;20038;-93
2022/08/01 00:23:17;;;;;;;27.35;12.82;;;;;;;19.05;100.00;101523.91;5008858;28;20026;-93
2022/08/01 00:25:49;;;;;;;18.67;11.13;;;;;;;18.97;100.00;101519.97;5007412;28;20068;-93
2022/08/01 00:28:20;;;;;;;17.20;12.10;;;;;;;18.98;100.00;101520.78;4996617;28;20026;-93
2022/08/01 00:30:54;;;;;;;15.80;10.80;;;;;;;19.00;100.00;101522.09;5009735;28;20034;-94
2022/08/01 00:33:19;;;;;;;16.80;11.37;;;;;;;19.04;100.00;101528.53;5010935;23;20232;-94
2022/08/01 00:35:44;;;;;;;18.90;12.17;;;;;;;19.10;100.00;101544.72;4969431;28;20459;-93
2022/08/01 00:38:17;;;;;;;23.43;12.23;;;;;;;19.06;100.00;101534.47;4970960;28;20041;-93
2022/08/01 00:40:48;;;;;;;20.02;12.10;;;;;;;18.98;100.00;101520.78;4970849;28;20035;-92
2022/08/01 00:43:14;;;;;;;23.17;13.20;;;;;;;18.92;100.00;101523.53;4974139;28;20026;-93
2022/08/01 00:45:40;;;;;;;20.40;12.93;;;;;;;18.97;100.00;101524.59;4974999;28;20285;-93
2022/08/01 00:48:11;;;;;;;23.52;13.68;;;;;;;18.86;100.00;101513.06;4976083;28;20034;-93
2022/08/01 00:50:46;;;;;;;23.27;13.33;;;;;;;18.86;100.00;101535.59;4971403;28;20054;-94
2022/08/01 00:53:12;;;;;;;20.20;13.73;;;;;;;18.79;100.00;101540.59;4958172;28;20304;-93
2022/08/01 00:56:24;;;;;;;23.48;13.77;;;;;;;18.66;100.00;101525.06;4973796;28;20394;-94
2022/08/01 00:58:53;;;;;;;30.10;14.43;;;;;;;18.67;100.00;101537.53;4960042;28;20031;-93
2022/08/01 01:01:25;;;;;;;28.20;14.70;;;;;;;18.67;100.00;101545.66;4988125;23;20492;-94
2022/08/01 01:04:15;;;;;;;24.20;14.53;;;;;;;18.68;100.00;101547.28;5048562;28;20287;-94
2022/08/01 01:09:30;;;;;;;28.17;15.15;;;;;;;18.62;100.00;101547.34;6123899;22;20328;-92
2022/08/01 01:12:05;;;;;;;25.65;15.18;;;;;;;18.59;100.00;101558.00;5012861;28;20033;-93
2022/08/01 01:18:26;;;;;;;33.42;16.85;;;;;;;18.45;100.00;101550.59;4936395;29;20105;-94
2022/08/01 01:21:16;;;;;;;27.23;16.17;;;;;;;18.36;100.00;101538.78;4911268;29;20036;-93
2022/08/01 01:24:06;;;;;;;28.23;15.75;;;;;;;18.40;100.00;101544.44;4918315;29;20044;-93
2022/08/01 01:27:01;;;;;;;31.02;15.18;;;;;;;18.33;100.00;101544.81;4930322;29;20035;-94
2022/08/01 01:29:57;;;;;;;26.33;13.23;;;;;;;18.31;100.00;101536.97;4958055;28;20080;-94
2022/08/01 01:32:52;;;;;;;21.73;13.37;;;;;;;18.37;100.00;101548.53;5029658;28;20319;-94
2022/08/01 01:35:39;;;;;;;19.40;13.05;;;;;;;18.39;100.00;101538.19;5008218;28;20132;-94
2022/08/01 01:38:29;;;;;;;22.05;12.40;;;;;;;18.40;100.00;101530.88;5011579;28;20413;-94
2022/08/01 01:40:56;;;;;;;18.52;11.77;;;;;;;18.45;100.00;101538.94;5025611;28;20033;-94
2022/08/01 01:43:24;;;;;;;20.20;12.70;;;;;;;18.44;100.00;101535.41;5155282;23;20387;-93
2022/08/01 01:45:51;;;;;;;19.27;11.98;;;;;;;18.42;100.00;101547.69;4953351;28;20531;-93
2022/08/01 01:48:33;;;;;;;21.05;11.90;;;;;;;18.44;100.00;101545.47;4952154;28;20121;-94
2022/08/01 01:51:03;;;;;;;17.25;10.65;;;;;;;18.41;100.00;101536.00;4954720;29;20553;-94
2022/08/01 01:53:49;;;;;;;21.23;11.68;;;;;;;18.39;100.00;101527.34;4933430;29;20027;-94
2022/08/01 01:56:26;;;;;;;19.93;11.60;;;;;;;18.39;100.00;101526.56;4954893;29;20027;-94
2022/08/01 01:59:01;;;;;;;21.80;11.47;;;;;;;18.42;100.00;101534.91;4967264;28;20322;-93
2022/08/01 02:01:42;;;;;;;18.30;11.45;;;;;;;18.42;100.00;101525.97;4954305;29;20078;-94
2022/08/01 02:04:22;;;;;;;19.52;11.55;;;;;;;18.39;100.00;101529.28;4974910;23;20487;-93
2022/08/01 02:07:24;;;;;;;18.52;11.32;;;;;;;18.48;100.00;101541.06;5011373;28;20139;-93
2022/08/01 02:10:06;;;;;;;21.00;10.70;;;;;;;18.46;100.00;101532.41;5001226;28;20046;-93
2022/08/01 02:12:41;;;;;;;15.65;9.93;;;;;;;18.51;100.00;101540.47;5012730;28;20501;-95
2022/08/01 02:15:11;;;;;;;15.77;10.15;;;;;;;18.48;100.00;101532.91;4990532;28;20033;-94
2022/08/01 02:17:46;;;;;;;16.45;10.52;;;;;;;18.49;100.00;101533.75;4991590;28;20057;-94
2022/08/01 02:20:26;;;;;;;16.38;10.48;;;;;;;18.49;100.00;101531.03;4992492;28;20115;-93
2022/08/01 02:23:32;;;;;;;16.70;9.80;;;;;;;18.56;100.00;101545.00;4991927;28;20097;-93
2022/08/01 02:26:02;;;;;;;17.97;10.53;;;;;;;18.53;100.00;101538.28;4990606;28;20364;-93
2022/08/01 02:28:59;;;;;;;16.58;9.73;;;;;;;18.46;100.00;101529.69;4990661;28;20034;-93
2022/08/01 02:32:19;;;;;;;18.50;10.95;;;;;;;18.58;100.00;101542.81;4991836;28;20038;-93
2022/08/01 03:12:26;;;;;;;17.15;11.25;;;;;;;18.44;100.00;101538.13;4927972;29;20035;-93
2022/08/01 03:15:22;;;;;;;19.52;10.95;;;;;;;18.44;100.00;101548.19;4930260;29;20036;-91
2022/08/01 03:20:56;;;;;;;19.87;11.20;;;;;;;18.42;100.00;101547.69;4969428;28;20061;-90
2022/08/01 03:23:42;;;;;;;16.13;10.40;;;;;;;18.33;100.00;101533.16;4970056;28;20282;-91
2022/08/01 03:26:11;;;;;;;18.65;10.20;;;;;;;18.33;100.00;101533.16;4940954;28;20046;-91
2022/08/01 03:29:19;;;;;;;20.80;11.02;;;;;;;18.45;100.00;101547.06;4930824;29;20154;-90
2022/08/01 03:35:00;;;;;;;20.70;11.25;;;;;;;18.40;100.00;101552.59;5005588;23;20137;-91
2022/08/01 03:38:12;;;;;;;17.13;10.52;;;;;;;18.34;100.00;101541.00;4990002;28;20034;-91
2022/08/01 03:41:21;;;;;;;20.10;10.98;;;;;;;18.43;100.00;101554.72;4891968;29;20048;-92
2022/08/01 04:34:14;;;;;;;18.70;11.13;;;;;;;18.34;100.00;101578.16;4964418;23;20879;-89
2022/08/01 04:40:10;;;;;;;23.40;11.77;;;;;;;18.27;100.00;101576.63;4973877;28;20042;-90
2022/08/01 04:46:29;;;;;;;25.63;11.57;;;;;;;18.29;100.00;101570.91;4917431;29;20547;-90
2022/08/01 04:49:16;;;;;;;20.63;11.43;;;;;;;18.30;100.00;101570.59;4918912;29;20044;-90
2022/08/01 04:52:00;;;;;;;19.17;11.65;;;;;;;18.40;100.00;101575.09;4910479;29;20127;-90
2022/08/01 04:54:38;;;;;;;21.73;10.70;;;;;;;18.46;100.00;101565.78;4891516;29;20077;-91
2022/08/01 04:57:09;;;;;;;24.27;12.00;;;;;;;18.55;100.00;101575.97;4908195;29;20096;-90
2022/08/01 04:59:56;;;;;;;17.93;10.57;;;;;;;18.73;100.00;101593.34;4910667;29;20717;-91
2022/08/01 05:02:49;;;;;;;18.60;10.80;;;;;;;18.98;100.00;101605.75;4914700;29;20307;-89
2022/08/01 05:05:17;;;;;;;18.58;10.55;;;;;;;19.05;100.00;101605.38;4880094;29;20378;-93
2022/08/01 05:07:51;;;;;;;23.70;11.43;;;;;;;19.09;100.00;101589.28;4916654;28;20042;-90
2022/08/01 05:10:28;;;;;;;17.52;10.77;;;;;;;19.19;100.00;101579.06;4975416;28;20038;-90
2022/08/01 05:13:44;;;;;;;20.55;11.23;;;;;;;19.41;100.00;101602.03;5160077;23;20914;-89
2022/08/01 05:25:28;;;;;;;16.98;10.95;;;;;;;19.54;100.00;101611.34;5177997;23;20050;-89
2022/08/01 05:27:53;;;;;;;15.60;9.70;;;;;;;19.52;100.00;101616.25;5013837;28;20026;-89
2022/08/01 05:30:18;;;;;;;16.20;10.07;;;;;;;19.47;100.00;101609.00;5016390;28;20021;-90
2022/08/01 05:32:44;;;;;;;12.38;9.73;;;;;;;19.54;100.00;101621.41;5008360;28;20461;-89
2022/08/01 05:35:09;;;;;;;16.60;10.00;;;;;;;19.65;100.00;101612.75;5007095;28;20110;-88
2022/08/01 05:37:34;;;;;;;18.07;10.47;;;;;;;19.69;100.00;101629.28;5009117;28;20053;-89
2022/08/01 05:40:00;;;;;;;14.70;9.80;;;;;;;19.73;99.72;101619.41;5007802;28;20105;-89
2022/08/01 05:42:26;;;;;;;18.67;10.38;;;;;;;19.76;99.45;101618.81;5012544;28;20029;-89
2022/08/01 05:44:51;;;;;;;16.27;8.80;;;;;;;19.87;99.87;101616.72;4999328;28;20032;-89
2022/08/01 05:47:16;;;;;;;16.70;9.33;;;;;;;20.01;99.04;101610.47;4998824;28;20497;-90
2022/08/01 05:49:42;;;;;;;15.77;9.47;;;;;;;20.10;98.21;101614.91;5013365;28;20640;-89
2022/08/01 05:52:08;;;;;;;13.82;9.05;;;;;;;20.35;97.37;101614.69;5013442;28;20022;-90
2022/08/01 05:54:33;;;;;;;15.43;8.90;;;;;;;20.35;95.79;101615.47;5011681;28;20327;-90
2022/08/01 05:57:02;;;;;;;14.83;8.83;;;;;;;20.40;96.11;101611.84;5011696;28;20437;-90
2022/08/01 05:59:28;;;;;;;14.07;8.95;;;;;;;20.52;94.42;101617.56;5012732;28;20456;-91
2022/08/01 06:01:54;;;;;;;11.32;8.00;;;;;;;20.53;94.46;101627.34;5012447;28;20037;-89
2022/08/01 06:04:19;;;;;;;12.85;8.13;;;;;;;20.55;94.01;101616.16;5013094;28;20076;-91
2022/08/01 06:06:44;;;;;;;15.90;8.70;;;;;;;20.47;93.88;101623.13;5013280;28;20381;-89
2022/08/01 06:09:10;;;;;;;11.33;7.57;;;;;;;20.48;93.45;101632.06;5007248;28;20030;-91
2022/08/01 06:11:35;;;;;;;16.70;8.50;;;;;;;20.51;94.52;101628.75;4995306;28;20639;-91
2022/08/01 06:14:00;;;;;;;13.03;7.67;;;;;;;20.61;93.22;101623.09;5017660;28;20036;-90
2022/08/01 06:16:26;;;;;;;15.17;7.93;;;;;;;20.78;92.44;101627.09;5018078;28;20048;-91
2022/08/01 06:18:51;;;;;;;11.00;7.82;;;;;;;20.81;92.27;101631.94;5013995;28;20026;-91
2022/08/01 06:21:16;;;;;;;12.97;7.87;;;;;;;20.82;91.70;101625.34;5006829;28;20025;-92
2022/08/01 06:29:20;;;;;;;8.73;5.75;;;;;;;20.92;91.04;101636.03;5655003;22;20087;-92
2022/08/01 06:32:12;;;;;;;7.27;4.60;;;;;;;20.70;91.19;101632.13;5015952;28;20104;-89
2022/08/01 06:41:20;;;;;;;6.10;3.65;;;;;;;20.13;91.20;101632.53;4948525;29;20058;-90
2022/08/01 06:44:48;;;;;;;4.00;3.60;;;;;;;20.22;90.64;101646.25;4932070;29;20032;-94
2022/08/01 06:47:43;;;;;;;8.18;3.80;;;;;;;20.19;91.25;101646.84;4986323;28;20040;-92
2022/08/01 06:53:24;;;;;;;7.50;3.85;;;;;;;20.20;91.33;101637.56;4982852;28;20072;-90
2022/08/01 06:56:35;;;;;;;5.28;3.63;;;;;;;20.24;91.67;101652.97;4982152;28;20151;-91
2022/08/01 07:08:46;;;;;;;5.35;3.20;;;;;;;21.18;86.21;101635.41;4921895;29;20166;-94
2022/08/01 07:11:39;;;;;;;6.57;3.13;;;;;;;21.46;86.34;101655.13;4906950;29;20080;-96
2022/08/01 07:15:04;;;;;;;;;;;;;;;;;;;;;
2022/08/01 07:21:35;;;;;;;4.63;3.13;;;;;;;21.34;83.97;101652.16;4894469;29;20075;-94
2022/08/01 07:39:38;;;;;;;3.97;2.33;;;;;;;22.92;76.22;101660.84;4971220;28;20402;-94
2022/08/01 07:50:44;;;;;;;4.50;1.60;;;;;;;22.37;75.16;101673.94;4981229;28;20046;-96
2022/08/01 08:57:44;;;;;;;1.50;1.20;;;;;;;25.28;56.85;101681.97;5026923;28;20046;-96
2022/08/01 09:00:11;;;;;;;2.43;0.90;;;;;;;24.59;57.76;101682.19;5028810;28;20033;-96
2022/08/01 09:02:40;;;;;;;0.90;0.90;;;;;;;24.08;59.98;101693.13;5019920;28;20304;-96
2022/08/01 09:05:06;;;;;;;1.23;0.77;;;;;;;24.02;61.74;101692.50;4994073;28;20582;-96
2022/08/01 09:07:32;;;;;;;0.93;0.90;;;;;;;24.16;61.65;101691.47;5024114;28;20075;-96
2022/08/01 09:09:57;;;;;;;0.90;0.90;;;;;;;24.57;60.48;101689.13;5022469;28;20026;-96
2022/08/01 09:12:22;;;;;;;0.87;0.87;;;;;;;24.91;60.63;101688.09;5011492;28;20097;-96
2022/08/01 09:14:49;;;;;;;1.20;1.00;;;;;;;24.95;57.05;101694.53;5012048;28;20034;-94
2022/08/01 09:17:16;;;;;;;1.30;1.00;;;;;;;25.46;57.14;101695.53;5004556;28;20297;-96
2022/08/01 09:19:53;;;;;;;4.78;1.27;;;;;;;26.26;57.31;101699.72;5003255;28;20014;-96
2022/08/01 09:31:24;;;;;;;;;;;;;;;;;;;;;
2022/08/01 09:34:46;;;;;;;1.15;1.10;;;;;;;26.15;57.63;101684.88;5030481;28;20060;-96
2022/08/01 10:17:14;;;;;;;2.33;2.05;;;;;;;26.94;55.38;101710.34;4900016;29;20148;-96
2022/08/01 11:07:50;;;;;;;3.50;1.30;;;;;;;25.31;60.74;101725.16;5399810;23;20503;-92
2022/08/01 12:27:42;;;;;;;2.75;1.30;;;;;;;26.41;51.90;101775.16;5102012;23;20058;-93
2022/08/01 12:47:20;;;;;;;4.00;1.60;;;;;;;26.49;51.16;101758.88;5036625;28;20068;-90
2022/08/01 16:00:19;;;;;;;6.23;2.20;;;;;;;29.74;35.66;101744.75;5083526;23;20303;-92
2022/08/01 16:02:47;;;;;;;5.78;2.10;;;;;;;29.90;36.00;101744.63;5055156;28;20384;-91
2022/08/01 16:05:27;;;;;;;6.63;2.23;;;;;;;29.69;35.50;101747.00;5030575;28;20026;-92
2022/08/01 17:38:35;;;;;;;5.70;1.60;;;;;;;26.72;34.82;101738.00;1420750;26;20525;-84
2022/08/01 17:41:01;;;;;;;5.72;1.45;;;;;;;26.49;34.56;101740.47;5014181;28;20038;-85
2022/08/01 17:43:29;;;;;;;2.28;1.33;;;;;;;26.24;35.48;101734.97;5013629;28;20460;-84
2022/08/01 17:45:58;;;;;;;2.83;1.30;;;;;;;25.92;35.50;101737.44;5011293;28;20080;-85
2022/08/01 17:48:27;;;;;;;2.23;1.40;;;;;;;25.52;36.20;101730.63;5012559;28;20285;-85
2022/08/01 17:50:52;;;;;;;3.03;1.40;;;;;;;25.22;36.14;101730.72;5011901;28;20052;-85
2022/08/01 17:53:17;;;;;;;5.13;1.02;;;;;;;24.74;37.90;101732.06;5013208;28;20026;-84
2022/08/01 17:56:04;;;;;;;4.33;1.50;;;;;;;24.46;38.58;101738.03;5011215;28;20101;-84
2022/08/01 17:58:29;;;;;;;1.83;1.35;;;;;;;24.25;40.23;101732.50;4993717;28;20099;-84
2022/08/01 18:00:54;;;;;;;1.85;1.20;;;;;;;24.03;39.11;101737.91;4994422;28;20560;-84
2022/08/01 18:03:22;;;;;;;3.77;1.27;;;;;;;23.86;39.55;101740.69;4993462;28;20062;-84
2022/08/01 18:05:48;;;;;;;3.15;1.20;;;;;;;23.75;40.87;101735.53;5004353;28;20072;-84
2022/08/01 18:08:14;;;;;;;2.23;1.10;;;;;;;23.62;41.89;101736.56;5010574;28;20048;-83
2022/08/01 18:10:39;;;;;;;4.90;1.40;;;;;;;23.53;42.71;101738.50;5012956;28;20072;-84
2022/08/01 18:13:28;;;;;;;;;;;;;;;;;;;;;
2022/08/01 18:16:35;;;;;;;3.38;1.45;;;;;;;22.78;41.82;101721.13;5004003;28;20512;-83
2022/08/01 18:20:01;;;;;;;4.28;1.15;;;;;;;22.60;42.98;101723.03;5013413;28;20026;-84
2022/08/01 18:22:40;;;;;;;2.75;1.10;;;;;;;22.42;43.37;101733.13;5006990;28;20030;-83
2022/08/01 18:32:04;;;;;;;;;;;;;;;;;;;;;
2022/08/01 18:34:36;;;;;;;4.77;1.27;;;;;;;21.97;44.09;101735.94;4991300;28;20388;-86
2022/08/01 18:37:16;;;;;;;3.93;1.30;;;;;;;21.97;44.88;101744.97;4951134;28;20880;-85
2022/08/01 18:53:51;;;;;;;4.57;1.20;;;;;;;21.06;45.53;101735.97;5010991;28;20050;-83
2022/08/01 19:06:03;;;;;;;3.03;1.00;;;;;;;20.88;46.19;101760.31;5006666;28;20331;-86
2022/08/01 19:12:05;;;;;;;2.03;1.00;;;;;;;20.62;45.83;101740.97;5023406;23;20119;-83
2022/08/01 19:15:03;;;;;;;3.80;1.10;;;;;;;20.45;46.10;101747.03;5010740;28;20029;-84
2022/08/01 19:17:50;;;;;;;3.20;1.30;;;;;;;20.40;46.97;101770.50;4986291;28;20052;-83
2022/08/01 19:21:34;;;;;;;;;;;;;;;;;;;;;
2022/08/01 19:25:08;;;;;;;5.63;1.30;;;;;;;20.31;47.81;101766.88;4911286;29;20069;-83
2022/08/01 19:28:01;;;;;;;6.97;1.25;;;;;;;20.23;48.58;101775.75;4946505;28;20063;-82
2022/08/01 19:51:05;;;;;;;5.95;1.10;;;;;;;19.34;50.54;101781.78;4916047;28;20086;-83
2022/08/01 19:54:03;;;;;;;3.05;1.00;;;;;;;19.19;52.73;101795.59;4893028;29;20039;-83
2022/08/01 20:00:29;;;;;;;;;;;;;;;;;;;;;
2022/08/01 20:09:33;;;;;;;3.00;1.20;;;;;;;18.68;54.41;101799.72;5011099;28;20644;-82
2022/08/01 22:36:12;;;;;;;4.10;1.98;;;;;;;15.56;67.99;101804.13;5965713;23;20058;-88
2022/08/01 22:38:38;;;;;;;4.15;2.00;;;;;;;15.56;68.24;101798.72;5011583;28;20091;-87
2022/08/01 22:43:54;;;;;;;3.17;1.83;;;;;;;15.51;67.68;101802.25;5271226;22;20061;-87
2022/08/01 23:36:33;;;;;;;3.97;1.95;;;;;;;15.09;68.72;101776.19;4906902;29;20523;-87
